createdAt,value
2018-08-10T00:00:04.279Z,18.14
2018-08-10T00:05:04.301Z,18.13
2018-08-10T00:10:04.281Z,18.26
2018-08-10T00:15:04.285Z,18.27
2018-08-10T00:20:04.294Z,18.33
2018-08-10T00:25:04.295Z,18.17
2018-08-10T00:30:04.295Z,18.08
2018-08-10T00:35:04.304Z,18.11
2018-08-10T00:40:04.302Z,18.09
2018-08-10T00:45:04.308Z,18.05
2018-08-10T00:50:04.326Z,18.14
2018-08-10T00:55:04.309Z,18.25
2018-08-10T01:00:04.309Z,18.32
2018-08-10T01:05:04.326Z,18.04
2018-08-10T01:10:04.318Z,17.91
2018-08-10T01:15:04.319Z,17.76
2018-08-10T01:20:04.328Z,17.62
2018-08-10T01:25:04.323Z,17.58
2018-08-10T01:30:04.327Z,17.45
2018-08-10T01:35:04.345Z,17.21
2018-08-10T01:40:04.332Z,17.02
2018-08-10T01:45:04.332Z,16.9
2018-08-10T01:50:04.348Z,16.96
2018-08-10T01:55:04.351Z,17.06
2018-08-10T02:00:04.346Z,17.11
2018-08-10T02:05:04.351Z,17.18
2018-08-10T02:10:04.352Z,17.19
2018-08-10T02:15:04.351Z,17.16
2018-08-10T02:20:04.361Z,17.11
2018-08-10T02:25:04.354Z,17.11
2018-08-10T02:30:04.359Z,17.11
2018-08-10T02:35:04.366Z,17.08
2018-08-10T02:40:04.367Z,17.05
2018-08-10T02:45:04.365Z,16.98
2018-08-10T02:50:04.381Z,16.89
2018-08-10T02:55:04.373Z,16.8
2018-08-10T03:00:04.368Z,16.72
2018-08-10T03:05:04.399Z,16.57
2018-08-10T03:10:04.376Z,16.46
2018-08-10T03:15:04.381Z,16.43
2018-08-10T03:20:04.391Z,16.26
2018-08-10T03:25:04.389Z,16.01
2018-08-10T03:30:04.398Z,15.8
2018-08-10T03:35:04.413Z,15.67
2018-08-10T03:40:03.397Z,15.71
2018-08-10T03:45:03.398Z,15.72
2018-08-10T03:50:03.400Z,15.68
2018-08-10T03:55:03.417Z,15.67
2018-08-10T04:00:03.403Z,15.65
2018-08-10T04:05:03.410Z,15.67
2018-08-10T04:10:03.424Z,15.67
2018-08-10T04:15:03.413Z,15.66
2018-08-10T04:20:03.411Z,15.63
2018-08-10T04:25:03.437Z,15.62
2018-08-10T04:30:03.425Z,15.55
2018-08-10T04:35:03.421Z,15.43
2018-08-10T04:40:03.444Z,15.44
2018-08-10T04:45:03.427Z,15.4
2018-08-10T04:50:03.432Z,15.37
2018-08-10T04:55:03.447Z,15.34
2018-08-10T05:00:03.439Z,15.31
2018-08-10T05:05:03.436Z,15.36
2018-08-10T05:10:03.447Z,15.32
2018-08-10T05:15:03.443Z,15.31
2018-08-10T05:20:03.448Z,15.3
2018-08-10T05:25:03.458Z,15.36
2018-08-10T05:30:03.446Z,15.38
2018-08-10T05:35:03.453Z,15.37
2018-08-10T05:40:03.462Z,15.34
2018-08-10T05:45:03.460Z,15.34
2018-08-10T05:50:03.462Z,15.38
2018-08-10T05:55:03.465Z,15.54
2018-08-10T06:00:03.486Z,15.76
2018-08-10T06:05:03.465Z,16.14
2018-08-10T06:10:03.470Z,16.32
2018-08-10T06:15:03.497Z,16.13
2018-08-10T06:20:03.493Z,16.04
2018-08-10T06:25:03.540Z,16.35
2018-08-10T06:30:03.488Z,16.58
2018-08-10T06:35:03.502Z,16.42
2018-08-10T06:40:03.489Z,16.63
2018-08-10T06:45:03.642Z,17.36
2018-08-10T06:50:03.544Z,17.45
2018-08-10T06:55:03.494Z,17.3
2018-08-10T07:00:03.522Z,17.36
2018-08-10T07:05:03.503Z,17.5
2018-08-10T07:10:03.505Z,17.51
2018-08-10T07:15:03.516Z,17.66
2018-08-10T07:20:03.509Z,17.59
2018-08-10T07:25:03.509Z,17.28
2018-08-10T07:30:03.533Z,17.14
2018-08-10T07:35:03.519Z,17.29
2018-08-10T07:40:03.518Z,18.18
2018-08-10T07:45:03.546Z,18.72
2018-08-10T07:50:03.526Z,18.93
2018-08-10T07:55:03.529Z,19.85
2018-08-10T08:00:03.554Z,20.3
2018-08-10T08:05:03.537Z,20.63
2018-08-10T08:10:03.539Z,20.33
2018-08-10T08:15:03.558Z,20.57
2018-08-10T08:20:03.543Z,20.59
2018-08-10T08:25:03.546Z,20.34
2018-08-10T08:30:03.559Z,19.86
2018-08-10T08:35:03.607Z,19.53
2018-08-10T08:40:03.557Z,19.66
2018-08-10T08:45:03.576Z,19.36
2018-08-10T08:50:03.590Z,20.06
2018-08-10T08:55:03.562Z,21.3
2018-08-10T09:00:03.577Z,22.57
2018-08-10T09:05:03.569Z,23.61
2018-08-10T09:10:03.638Z,22.98
2018-08-10T09:15:03.597Z,23.07
2018-08-10T09:20:03.586Z,24
2018-08-10T09:25:03.583Z,24.31
2018-08-10T09:30:03.587Z,23.8
2018-08-10T09:35:03.584Z,23.22
2018-08-10T09:40:03.589Z,22.73
2018-08-10T09:45:03.614Z,22.39
2018-08-10T09:50:03.593Z,22.28
2018-08-10T09:55:03.594Z,22.26
2018-08-10T10:00:03.603Z,22.27
2018-08-10T10:05:03.627Z,22.78
2018-08-10T10:10:03.608Z,22.8
2018-08-10T10:15:03.605Z,23.44
2018-08-10T10:20:03.637Z,23.57
2018-08-10T10:25:03.611Z,24.21
2018-08-10T10:30:03.619Z,24.02
2018-08-10T10:35:03.620Z,24.14
2018-08-10T10:40:03.624Z,23.91
2018-08-10T10:45:03.625Z,23.98
2018-08-10T10:50:03.647Z,23.82
2018-08-10T10:55:03.632Z,23.47
2018-08-10T11:00:03.634Z,23.2
2018-08-10T11:05:03.641Z,24.63
2018-08-10T11:10:03.647Z,24.74
2018-08-10T11:15:03.643Z,24.45
2018-08-10T11:20:03.648Z,23.41
2018-08-10T11:25:03.678Z,22.98
2018-08-10T11:30:03.652Z,23.49
2018-08-10T11:35:03.671Z,25.08
2018-08-10T11:40:03.654Z,26.2
2018-08-10T11:45:03.756Z,26.94
2018-08-10T11:50:03.790Z,26.82
2018-08-10T11:55:03.682Z,25.21
2018-08-10T12:00:03.721Z,26.25
2018-08-10T12:05:03.689Z,27.88
2018-08-10T12:10:03.673Z,30.23
2018-08-10T12:15:03.682Z,30.92
2018-08-10T12:20:03.694Z,30.23
2018-08-10T12:25:03.695Z,30.07
2018-08-10T12:30:03.686Z,31.38
2018-08-10T12:35:03.683Z,32.13
2018-08-10T12:40:03.703Z,32.39
2018-08-10T12:45:03.910Z,32.09
2018-08-10T12:50:03.700Z,29.39
2018-08-10T12:55:03.705Z,31.56
2018-08-10T13:00:03.696Z,34.06
2018-08-10T13:05:03.705Z,34.92
2018-08-10T13:10:03.713Z,34.22
2018-08-10T13:15:03.704Z,30.36
2018-08-10T13:20:03.717Z,29
2018-08-10T13:25:03.712Z,30.05
2018-08-10T13:30:03.713Z,29.9
2018-08-10T13:35:03.723Z,29.06
2018-08-10T13:40:03.721Z,27.95
2018-08-10T13:45:03.721Z,27.31
2018-08-10T13:50:03.729Z,27.16
2018-08-10T13:55:03.723Z,27.16
2018-08-10T14:00:03.723Z,27.94
2018-08-10T14:05:03.733Z,27.95
2018-08-10T14:10:03.733Z,27.57
2018-08-10T14:15:03.733Z,28.27
2018-08-10T14:20:03.762Z,28.86
2018-08-10T14:25:03.742Z,29.45
2018-08-10T14:30:03.743Z,28.77
2018-08-10T14:35:03.763Z,30.87
2018-08-10T14:40:03.754Z,33.96
2018-08-10T14:45:03.754Z,34.85
2018-08-10T14:50:03.758Z,36.15
2018-08-10T14:55:03.757Z,36.41
2018-08-10T15:00:03.761Z,37.52
2018-08-10T15:05:03.768Z,38.28
2018-08-10T15:10:03.765Z,36
2018-08-10T15:15:03.769Z,32.97
2018-08-10T15:20:03.776Z,30.62
2018-08-10T15:25:03.889Z,31.76
2018-08-10T15:30:03.774Z,33.26
2018-08-10T15:35:03.797Z,34.61
2018-08-10T15:40:03.779Z,32.09
2018-08-10T15:45:03.781Z,30.15
2018-08-10T15:50:03.790Z,32.77
2018-08-10T15:55:03.789Z,31.98
2018-08-10T16:00:03.785Z,31.24
2018-08-10T16:05:03.799Z,29.14
2018-08-10T16:10:03.795Z,29.38
2018-08-10T16:15:03.797Z,30.26
2018-08-10T16:20:03.808Z,28.79
2018-08-10T16:25:03.803Z,27.26
2018-08-10T16:30:03.813Z,26.53
2018-08-10T16:35:03.816Z,26.11
2018-08-10T16:40:03.811Z,25.63
2018-08-10T16:45:03.819Z,25.3
2018-08-10T16:50:03.842Z,25.15
2018-08-10T16:55:03.817Z,25.19
2018-08-10T17:00:03.827Z,24.58
2018-08-10T17:05:03.840Z,23.74
2018-08-10T17:10:03.831Z,23.01
2018-08-10T17:15:03.832Z,22.75
2018-08-10T17:20:03.830Z,22.82
2018-08-10T17:25:03.834Z,22.96
2018-08-10T17:30:03.843Z,22.83
2018-08-10T17:35:03.847Z,22.64
2018-08-10T17:40:03.845Z,22.37
2018-08-10T17:45:03.853Z,22.12
2018-08-10T17:50:03.846Z,21.88
2018-08-10T17:55:03.848Z,21.7
2018-08-10T18:00:03.858Z,21.55
2018-08-10T18:05:03.860Z,21.43
2018-08-10T18:10:03.964Z,21.32
2018-08-10T18:15:03.865Z,21.1
2018-08-10T18:20:03.865Z,20.93
2018-08-10T18:25:03.872Z,20.68
2018-08-10T18:30:03.887Z,20.46
2018-08-10T18:35:03.876Z,20.35
2018-08-10T18:40:03.868Z,20.24
2018-08-10T18:45:03.883Z,20.01
2018-08-10T18:50:03.878Z,19.7
2018-08-10T18:55:03.881Z,19.31
2018-08-10T19:00:03.889Z,18.87
2018-08-10T19:05:03.887Z,18.47
2018-08-10T19:10:03.888Z,18.14
2018-08-10T19:15:03.893Z,17.77
2018-08-10T19:20:03.901Z,17.39
2018-08-10T19:25:03.936Z,17.14
2018-08-10T19:30:03.916Z,16.96
2018-08-10T19:35:03.898Z,16.73
2018-08-10T19:40:03.909Z,16.49
2018-08-10T19:45:03.924Z,16.26
2018-08-10T19:50:03.910Z,16.14
2018-08-10T19:55:03.918Z,16.03
2018-08-10T20:00:03.937Z,16.04
2018-08-10T20:05:03.930Z,16.16
2018-08-10T20:10:03.945Z,16.1
2018-08-10T20:15:03.991Z,15.18
2018-08-10T20:20:03.944Z,14.81
2018-08-10T20:25:03.937Z,14.66
2018-08-10T20:30:03.947Z,14.54
2018-08-10T20:35:03.937Z,14.41
2018-08-10T20:40:03.950Z,14.29
2018-08-10T20:45:03.954Z,14.27
2018-08-10T20:50:03.955Z,14.44
2018-08-10T20:55:03.953Z,14.56
2018-08-10T21:00:03.975Z,14.59
2018-08-10T21:05:03.970Z,14.55
2018-08-10T21:10:03.960Z,14.55
2018-08-10T21:15:03.965Z,14.57
2018-08-10T21:20:03.979Z,14.6
2018-08-10T21:25:03.979Z,14.59
2018-08-10T21:30:03.974Z,14.53
2018-08-10T21:35:03.969Z,14.43
2018-08-10T21:40:03.991Z,14.35
2018-08-10T21:45:03.997Z,14.23
2018-08-10T21:50:03.980Z,14.12
2018-08-10T21:55:03.988Z,14.07
2018-08-10T22:00:04.006Z,13.96
2018-08-10T22:05:03.989Z,13.82
2018-08-10T22:10:03.990Z,13.6
2018-08-10T22:15:04.011Z,13.54
2018-08-10T22:20:03.999Z,13.58
2018-08-10T22:25:04.000Z,13.6
2018-08-10T22:30:04.020Z,13.59
2018-08-10T22:35:04.001Z,13.6
2018-08-10T22:40:04.027Z,13.53
2018-08-10T22:45:04.015Z,13.5
2018-08-10T22:50:04.026Z,13.39
2018-08-10T22:55:04.037Z,13.32
2018-08-10T23:00:04.027Z,13.24
2018-08-10T23:05:04.017Z,13.25
2018-08-10T23:10:04.040Z,13.24
2018-08-10T23:15:04.029Z,13.35
2018-08-10T23:20:04.045Z,13.48
2018-08-10T23:25:04.032Z,13.54
2018-08-10T23:30:04.039Z,13.51
2018-08-10T23:35:04.038Z,13.44
2018-08-10T23:40:04.031Z,13.3
2018-08-10T23:45:04.050Z,13.21
2018-08-10T23:50:04.046Z,13.06
2018-08-10T23:55:04.045Z,13.06
